Terminal Aerodrome Forecast
Issued by NWS

Current Version | Previous Version | Text Only | Print | Product List | Glossary Off
Versions: 1 2 3 4 5 6 7 8 9 10 11 12 13 14 15 16 17 18 19 20 21 22 23

000
FTUS41 KRLX 191518 AAA
TAFCKB
TAF AMD
KCKB 191518Z 1915/2012 15009G16KT P6SM BKN040
     FM191700 20010G18KT P6SM -SHRA BKN045
     FM192200 20008G18KT P6SM SHRA VCTS BKN060CB
     FM200000 20006KT P6SM -SHRA BKN050
     FM200500 23005KT P6SM -SHRA BKN030
     FM200800 23004KT P6SM OVC012=

USA.gov is the U.S. government's official web portal to all federal, state and local government web resources and services.